sensor_id;sensor_type;location;lat;lon;timestamp;pressure;altitude;pressure_sealevel;temperature;humidity
61908;BME280;47864;52.526;19.672;2024-03-02T00:00:33;151324.09;;;9.26;100.00
61908;BME280;47864;52.526;19.672;2024-03-02T00:02:44;151335.44;;;9.31;100.00
61908;BME280;47864;52.526;19.672;2024-03-02T00:04:46;151286.22;;;9.11;100.00
61908;BME280;47864;52.526;19.672;2024-03-02T00:06:51;151367.03;;;9.43;100.00
61908;BME280;47864;52.526;19.672;2024-03-02T00:08:57;151337.97;;;9.32;100.00
61908;BME280;47864;52.526;19.672;2024-03-02T00:11:00;151322.84;;;9.26;100.00
61908;BME280;47864;52.526;19.672;2024-03-02T00:13:02;151380.91;;;9.49;100.00
61908;BME280;47864;52.526;19.672;2024-03-02T00:17:42;151326.63;;;9.27;100.00
61908;BME280;47864;52.526;19.672;2024-03-02T00:19:44;151350.63;;;9.37;100.00
61908;BME280;47864;52.526;19.672;2024-03-02T00:21:45;151292.56;;;9.13;100.00
61908;BME280;47864;52.526;19.672;2024-03-02T00:23:48;151372.09;;;9.45;100.00
61908;BME280;47864;52.526;19.672;2024-03-02T00:25:52;151335.44;;;9.31;100.00
61908;BME280;47864;52.526;19.672;2024-03-02T00:27:53;151305.16;;;9.19;100.00
61908;BME280;47864;52.526;19.672;2024-03-02T00:29:55;151341.78;;;9.33;100.00
61908;BME280;47864;52.526;19.672;2024-03-02T00:31:57;151310.22;;;9.21;100.00
61908;BME280;47864;52.526;19.672;2024-03-02T00:33:59;151319.03;;;9.24;100.00
61908;BME280;47864;52.526;19.672;2024-03-02T00:36:04;151364.50;;;9.42;100.00
61908;BME280;47864;52.526;19.672;2024-03-02T00:38:06;151350.63;;;9.37;100.00
61908;BME280;47864;52.526;19.672;2024-03-02T00:40:08;151391.03;;;9.53;100.00
61908;BME280;47864;52.526;19.672;2024-03-02T00:42:11;151384.72;;;9.50;100.00
61908;BME280;47864;52.526;19.672;2024-03-02T00:44:15;151341.78;;;9.33;100.00
61908;BME280;47864;52.526;19.672;2024-03-02T00:46:19;151378.38;;;9.48;100.00
61908;BME280;47864;52.526;19.672;2024-03-02T00:48:21;151303.91;;;9.18;100.00
61908;BME280;47864;52.526;19.672;2024-03-02T00:50:22;151244.56;;;8.94;100.00
61908;BME280;47864;52.526;19.672;2024-03-02T00:52:31;151258.44;;;9.00;100.00
61908;BME280;47864;52.526;19.672;2024-03-02T00:54:33;151378.38;;;9.48;100.00
61908;BME280;47864;52.526;19.672;2024-03-02T00:56:35;151379.66;;;9.48;100.00
61908;BME280;47864;52.526;19.672;2024-03-02T00:58:36;151253.38;;;8.98;100.00
61908;BME280;47864;52.526;19.672;2024-03-02T01:00:38;151330.44;;;9.29;100.00
61908;BME280;47864;52.526;19.672;2024-03-02T01:02:40;151254.66;;;8.98;100.00
61908;BME280;47864;52.526;19.672;2024-03-02T01:04:41;151243.28;;;8.94;100.00
61908;BME280;47864;52.526;19.672;2024-03-02T01:06:43;151189.03;;;8.72;100.00
61908;BME280;47864;52.526;19.672;2024-03-02T01:08:45;151290.03;;;9.12;100.00
61908;BME280;47864;52.526;19.672;2024-03-02T01:10:47;151281.16;;;9.09;100.00
61908;BME280;47864;52.526;19.672;2024-03-02T01:12:48;151354.44;;;9.38;100.00
61908;BME280;47864;52.526;19.672;2024-03-02T01:14:50;151272.34;;;9.05;100.00
61908;BME280;47864;52.526;19.672;2024-03-02T01:16:52;151192.78;;;8.73;100.00
61908;BME280;47864;52.526;19.672;2024-03-02T01:18:53;151226.91;;;8.87;100.00
61908;BME280;47864;52.526;19.672;2024-03-02T01:20:55;151231.97;;;8.89;100.00
61908;BME280;47864;52.526;19.672;2024-03-02T01:22:56;151236.97;;;8.91;100.00
61908;BME280;47864;52.526;19.672;2024-03-02T01:24:58;151144.84;;;8.54;100.00
61908;BME280;47864;52.526;19.672;2024-03-02T01:26:59;151183.97;;;8.70;100.00
61908;BME280;47864;52.526;19.672;2024-03-02T01:29:01;151192.78;;;8.73;100.00
61908;BME280;47864;52.526;19.672;2024-03-02T01:31:03;151167.56;;;8.63;100.00
61908;BME280;47864;52.526;19.672;2024-03-02T01:33:04;151189.03;;;8.72;100.00
61908;BME280;47864;52.526;19.672;2024-03-02T01:35:06;151214.25;;;8.82;100.00
61908;BME280;47864;52.526;19.672;2024-03-02T01:37:08;151221.84;;;8.85;100.00
61908;BME280;47864;52.526;19.672;2024-03-02T01:39:09;151218.03;;;8.84;100.00
61908;BME280;47864;52.526;19.672;2024-03-02T01:41:11;151225.63;;;8.87;100.00
61908;BME280;47864;52.526;19.672;2024-03-02T01:43:12;151207.97;;;8.80;100.00
61908;BME280;47864;52.526;19.672;2024-03-02T01:45:14;151194.03;;;8.74;100.00
61908;BME280;47864;52.526;19.672;2024-03-02T01:47:16;151244.56;;;8.94;100.00
61908;BME280;47864;52.526;19.672;2024-03-02T01:49:17;151181.44;;;8.69;100.00
61908;BME280;47864;52.526;19.672;2024-03-02T01:51:19;151242.03;;;8.93;100.00
61908;BME280;47864;52.526;19.672;2024-03-02T01:53:21;151253.38;;;8.98;100.00
61908;BME280;47864;52.526;19.672;2024-03-02T01:55:22;151243.28;;;8.94;100.00
61908;BME280;47864;52.526;19.672;2024-03-02T01:57:24;151173.84;;;8.66;100.00
61908;BME280;47864;52.526;19.672;2024-03-02T01:59:26;151245.81;;;8.95;100.00
61908;BME280;47864;52.526;19.672;2024-03-02T02:01:28;151212.97;;;8.82;100.00
61908;BME280;47864;52.526;19.672;2024-03-02T02:03:30;151185.25;;;8.70;100.00
61908;BME280;47864;52.526;19.672;2024-03-02T02:05:31;151187.78;;;8.71;100.00
61908;BME280;47864;52.526;19.672;2024-03-02T02:07:33;151163.78;;;8.62;100.00
61908;BME280;47864;52.526;19.672;2024-03-02T02:09:36;151224.38;;;8.86;100.00
61908;BME280;47864;52.526;19.672;2024-03-02T02:11:38;151153.66;;;8.58;100.00
61908;BME280;47864;52.526;19.672;2024-03-02T02:13:39;151192.78;;;8.73;100.00
61908;BME280;47864;52.526;19.672;2024-03-02T02:15:41;151151.13;;;8.57;100.00
61908;BME280;47864;52.526;19.672;2024-03-02T02:17:42;151183.97;;;8.70;100.00
61908;BME280;47864;52.526;19.672;2024-03-02T02:19:44;151162.53;;;8.61;100.00
61908;BME280;47864;52.526;19.672;2024-03-02T02:21:46;151197.84;;;8.75;100.00
61908;BME280;47864;52.526;19.672;2024-03-02T02:23:47;151191.53;;;8.73;100.00
61908;BME280;47864;52.526;19.672;2024-03-02T02:25:49;151128.47;;;8.48;100.00
61908;BME280;47864;52.526;19.672;2024-03-02T02:27:50;151215.50;;;8.83;100.00
61908;BME280;47864;52.526;19.672;2024-03-02T02:29:52;151229.44;;;8.88;100.00
61908;BME280;47864;52.526;19.672;2024-03-02T02:31:54;151202.91;;;8.77;100.00
61908;BME280;47864;52.526;19.672;2024-03-02T02:33:55;151278.63;;;9.08;100.00
61908;BME280;47864;52.526;19.672;2024-03-02T02:35:57;151284.97;;;9.10;100.00
61908;BME280;47864;52.526;19.672;2024-03-02T02:37:59;151162.53;;;8.61;100.00
61908;BME280;47864;52.526;19.672;2024-03-02T02:40:00;151255.91;;;8.99;100.00
61908;BME280;47864;52.526;19.672;2024-03-02T02:42:02;151192.78;;;8.73;100.00
61908;BME280;47864;52.526;19.672;2024-03-02T02:44:04;151264.75;;;9.02;100.00
61908;BME280;47864;52.526;19.672;2024-03-02T02:46:06;151181.44;;;8.69;100.00
61908;BME280;47864;52.526;19.672;2024-03-02T02:48:08;151178.91;;;8.68;100.00
61908;BME280;47864;52.526;19.672;2024-03-02T02:50:11;151204.16;;;8.78;100.00
61908;BME280;47864;52.526;19.672;2024-03-02T02:52:13;151220.56;;;8.85;100.00
61908;BME280;47864;52.526;19.672;2024-03-02T02:54:14;151252.16;;;8.97;100.00
61908;BME280;47864;52.526;19.672;2024-03-02T02:56:16;151239.50;;;8.92;100.00
61908;BME280;47864;52.526;19.672;2024-03-02T02:58:17;151239.50;;;8.92;100.00
61908;BME280;47864;52.526;19.672;2024-03-02T03:00:19;151258.44;;;9.00;100.00
61908;BME280;47864;52.526;19.672;2024-03-02T03:02:21;151283.69;;;9.10;100.00
61908;BME280;47864;52.526;19.672;2024-03-02T03:04:23;151242.03;;;8.93;100.00
61908;BME280;47864;52.526;19.672;2024-03-02T03:06:24;151230.69;;;8.89;100.00
61908;BME280;47864;52.526;19.672;2024-03-02T03:08:26;151234.44;;;8.90;100.00
61908;BME280;47864;52.526;19.672;2024-03-02T03:10:27;151252.16;;;8.97;100.00
61908;BME280;47864;52.526;19.672;2024-03-02T03:12:30;151206.69;;;8.79;100.00
61908;BME280;47864;52.526;19.672;2024-03-02T03:14:31;151223.09;;;8.86;100.00
61908;BME280;47864;52.526;19.672;2024-03-02T03:16:33;151278.63;;;9.08;100.00
61908;BME280;47864;52.526;19.672;2024-03-02T03:18:35;151162.53;;;8.61;100.00
61908;BME280;47864;52.526;19.672;2024-03-02T03:20:36;151250.88;;;8.97;100.00
61908;BME280;47864;52.526;19.672;2024-03-02T03:22:38;151268.56;;;9.04;100.00
61908;BME280;47864;52.526;19.672;2024-03-02T03:24:40;151278.63;;;9.08;100.00
61908;BME280;47864;52.526;19.672;2024-03-02T03:26:41;151238.25;;;8.92;100.00
61908;BME280;47864;52.526;19.672;2024-03-02T03:28:43;151324.09;;;9.26;100.00
61908;BME280;47864;52.526;19.672;2024-03-02T03:30:45;151288.75;;;9.12;100.00
61908;BME280;47864;52.526;19.672;2024-03-02T03:32:46;151325.38;;;9.27;100.00
61908;BME280;47864;52.526;19.672;2024-03-02T03:34:48;151290.03;;;9.12;100.00
61908;BME280;47864;52.526;19.672;2024-03-02T03:36:49;151286.22;;;9.11;100.00
61908;BME280;47864;52.526;19.672;2024-03-02T03:38:51;151325.38;;;9.27;100.00
61908;BME280;47864;52.526;19.672;2024-03-02T03:40:52;151293.81;;;9.14;100.00
61908;BME280;47864;52.526;19.672;2024-03-02T03:42:54;151303.91;;;9.18;100.00
61908;BME280;47864;52.526;19.672;2024-03-02T03:44:56;151303.91;;;9.18;100.00
61908;BME280;47864;52.526;19.672;2024-03-02T03:46:57;151330.44;;;9.29;100.00
61908;BME280;47864;52.526;19.672;2024-03-02T03:48:59;151282.44;;;9.09;100.00
61908;BME280;47864;52.526;19.672;2024-03-02T03:51:00;151282.44;;;9.09;100.00
61908;BME280;47864;52.526;19.672;2024-03-02T03:53:02;151263.50;;;9.02;100.00
61908;BME280;47864;52.526;19.672;2024-03-02T03:55:04;151212.97;;;8.82;100.00
61908;BME280;47864;52.526;19.672;2024-03-02T03:57:05;151200.38;;;8.76;100.00
61908;BME280;47864;52.526;19.672;2024-03-02T03:59:07;151195.31;;;8.74;100.00
61908;BME280;47864;52.526;19.672;2024-03-02T04:01:08;151272.34;;;9.05;100.00
61908;BME280;47864;52.526;19.672;2024-03-02T04:03:10;151244.56;;;8.94;100.00
61908;BME280;47864;52.526;19.672;2024-03-02T04:05:11;151167.56;;;8.63;100.00
61908;BME280;47864;52.526;19.672;2024-03-02T04:07:13;151321.56;;;9.25;100.00
61908;BME280;47864;52.526;19.672;2024-03-02T04:09:15;151320.31;;;9.25;100.00
61908;BME280;47864;52.526;19.672;2024-03-02T04:11:16;151311.50;;;9.21;100.00
61908;BME280;47864;52.526;19.672;2024-03-02T04:13:18;151281.16;;;9.09;100.00
61908;BME280;47864;52.526;19.672;2024-03-02T04:15:20;151303.91;;;9.18;100.00
61908;BME280;47864;52.526;19.672;2024-03-02T04:17:21;151327.91;;;9.28;100.00
61908;BME280;47864;52.526;19.672;2024-03-02T04:19:23;151334.22;;;9.30;100.00
61908;BME280;47864;52.526;19.672;2024-03-02T04:21:25;151310.22;;;9.21;100.00
61908;BME280;47864;52.526;19.672;2024-03-02T04:23:26;151300.09;;;9.16;100.00
61908;BME280;47864;52.526;19.672;2024-03-02T04:25:28;151175.13;;;8.66;100.00
61908;BME280;47864;52.526;19.672;2024-03-02T04:27:30;151247.09;;;8.95;100.00
61908;BME280;47864;52.526;19.672;2024-03-02T04:29:32;151307.69;;;9.20;100.00
61908;BME280;47864;52.526;19.672;2024-03-02T04:31:34;151297.56;;;9.15;100.00
61908;BME280;47864;52.526;19.672;2024-03-02T04:33:35;151293.81;;;9.14;100.00
61908;BME280;47864;52.526;19.672;2024-03-02T04:35:37;151243.28;;;8.94;100.00
61908;BME280;47864;52.526;19.672;2024-03-02T04:37:38;151277.38;;;9.07;100.00
61908;BME280;47864;52.526;19.672;2024-03-02T04:39:40;151252.16;;;8.97;100.00
61908;BME280;47864;52.526;19.672;2024-03-02T04:41:41;151324.09;;;9.26;100.00
61908;BME280;47864;52.526;19.672;2024-03-02T04:43:43;151228.16;;;8.88;100.00
61908;BME280;47864;52.526;19.672;2024-03-02T04:45:44;151273.56;;;9.06;100.00
61908;BME280;47864;52.526;19.672;2024-03-02T04:47:46;151301.38;;;9.17;100.00
61908;BME280;47864;52.526;19.672;2024-03-02T04:49:50;151239.50;;;8.92;100.00
61908;BME280;47864;52.526;19.672;2024-03-02T04:51:52;151327.91;;;9.28;100.00
61908;BME280;47864;52.526;19.672;2024-03-02T04:53:53;151364.50;;;9.42;100.00
61908;BME280;47864;52.526;19.672;2024-03-02T04:55:55;151252.16;;;8.97;100.00
61908;BME280;47864;52.526;19.672;2024-03-02T04:57:57;151314.03;;;9.22;100.00
61908;BME280;47864;52.526;19.672;2024-03-02T04:59:58;151291.28;;;9.13;100.00
61908;BME280;47864;52.526;19.672;2024-03-02T05:02:00;151282.44;;;9.09;100.00
61908;BME280;47864;52.526;19.672;2024-03-02T05:04:01;151191.53;;;8.73;100.00
61908;BME280;47864;52.526;19.672;2024-03-02T05:06:03;151322.84;;;9.26;100.00
61908;BME280;47864;52.526;19.672;2024-03-02T05:08:05;151278.63;;;9.08;100.00
61908;BME280;47864;52.526;19.672;2024-03-02T05:10:08;151307.69;;;9.20;100.00
61908;BME280;47864;52.526;19.672;2024-03-02T05:12:10;151293.81;;;9.14;100.00
61908;BME280;47864;52.526;19.672;2024-03-02T05:14:11;151253.38;;;8.98;100.00
61908;BME280;47864;52.526;19.672;2024-03-02T05:16:13;151291.28;;;9.13;100.00
61908;BME280;47864;52.526;19.672;2024-03-02T05:18:14;151236.97;;;8.91;100.00
61908;BME280;47864;52.526;19.672;2024-03-02T05:20:16;151274.84;;;9.06;100.00
61908;BME280;47864;52.526;19.672;2024-03-02T05:22:18;151303.91;;;9.18;100.00
61908;BME280;47864;52.526;19.672;2024-03-02T05:24:19;151276.09;;;9.07;100.00
61908;BME280;47864;52.526;19.672;2024-03-02T05:26:21;151305.16;;;9.19;100.00
61908;BME280;47864;52.526;19.672;2024-03-02T05:28:22;151259.69;;;9.00;100.00
61908;BME280;47864;52.526;19.672;2024-03-02T05:30:24;151255.91;;;8.99;100.00
61908;BME280;47864;52.526;19.672;2024-03-02T05:32:26;151287.50;;;9.11;100.00
61908;BME280;47864;52.526;19.672;2024-03-02T05:34:27;151282.44;;;9.09;100.00
61908;BME280;47864;52.526;19.672;2024-03-02T05:36:29;151293.81;;;9.14;100.00
61908;BME280;47864;52.526;19.672;2024-03-02T05:38:30;151235.72;;;8.91;100.00
61908;BME280;47864;52.526;19.672;2024-03-02T05:40:32;151183.97;;;8.70;100.00
61908;BME280;47864;52.526;19.672;2024-03-02T05:42:33;151249.63;;;8.96;100.00
61908;BME280;47864;52.526;19.672;2024-03-02T05:44:38;151266.03;;;9.03;100.00
61908;BME280;47864;52.526;19.672;2024-03-02T05:46:39;151272.34;;;9.05;100.00
61908;BME280;47864;52.526;19.672;2024-03-02T05:48:41;151272.34;;;9.05;100.00
61908;BME280;47864;52.526;19.672;2024-03-02T05:50:43;151192.78;;;8.73;100.00
61908;BME280;47864;52.526;19.672;2024-03-02T05:52:45;151252.16;;;8.97;100.00
61908;BME280;47864;52.526;19.672;2024-03-02T05:54:46;151276.09;;;9.07;100.00
61908;BME280;47864;52.526;19.672;2024-03-02T05:56:48;151178.91;;;8.68;100.00
61908;BME280;47864;52.526;19.672;2024-03-02T05:58:50;151233.19;;;8.90;100.00
61908;BME280;47864;52.526;19.672;2024-03-02T06:00:51;151249.63;;;8.96;100.00
61908;BME280;47864;52.526;19.672;2024-03-02T06:02:53;151192.78;;;8.73;100.00
61908;BME280;47864;52.526;19.672;2024-03-02T06:04:56;151231.97;;;8.89;100.00
61908;BME280;47864;52.526;19.672;2024-03-02T06:06:57;151223.09;;;8.86;100.00
61908;BME280;47864;52.526;19.672;2024-03-02T06:09:02;151170.09;;;8.64;100.00
61908;BME280;47864;52.526;19.672;2024-03-02T06:11:04;151215.50;;;8.83;100.00
61908;BME280;47864;52.526;19.672;2024-03-02T06:13:06;151254.66;;;8.98;100.00
61908;BME280;47864;52.526;19.672;2024-03-02T06:15:08;151132.19;;;8.49;100.00
61908;BME280;47864;52.526;19.672;2024-03-02T06:17:09;151085.50;;;8.30;100.00
61908;BME280;47864;52.526;19.672;2024-03-02T06:19:11;151132.19;;;8.49;100.00
61908;BME280;47864;52.526;19.672;2024-03-02T06:21:12;151061.50;;;8.21;100.00
61908;BME280;47864;52.526;19.672;2024-03-02T06:23:14;151156.19;;;8.59;100.00
61908;BME280;47864;52.526;19.672;2024-03-02T06:25:15;151165.03;;;8.62;100.00
61908;BME280;47864;52.526;19.672;2024-03-02T06:27:17;151205.44;;;8.78;100.00
61908;BME280;47864;52.526;19.672;2024-03-02T06:29:19;151243.28;;;8.94;100.00
61908;BME280;47864;52.526;19.672;2024-03-02T06:31:20;151245.81;;;8.95;100.00
61908;BME280;47864;52.526;19.672;2024-03-02T06:33:22;151178.91;;;8.68;100.00
61908;BME280;47864;52.526;19.672;2024-03-02T06:35:23;151166.31;;;8.63;100.00
61908;BME280;47864;52.526;19.672;2024-03-02T06:37:25;151202.91;;;8.77;100.00
61908;BME280;47864;52.526;19.672;2024-03-02T06:39:26;151110.75;;;8.40;100.00
61908;BME280;47864;52.526;19.672;2024-03-02T06:41:28;151214.25;;;8.82;100.00
61908;BME280;47864;52.526;19.672;2024-03-02T06:43:30;151216.78;;;8.83;100.00
61908;BME280;47864;52.526;19.672;2024-03-02T06:45:31;151176.38;;;8.67;100.00
61908;BME280;47864;52.526;19.672;2024-03-02T06:47:33;151210.50;;;8.81;100.00
61908;BME280;47864;52.526;19.672;2024-03-02T06:49:34;151186.50;;;8.71;100.00
61908;BME280;47864;52.526;19.672;2024-03-02T06:51:36;151226.91;;;8.87;100.00
61908;BME280;47864;52.526;19.672;2024-03-02T06:53:38;151216.78;;;8.83;100.00
61908;BME280;47864;52.526;19.672;2024-03-02T06:55:39;151149.91;;;8.56;100.00
61908;BME280;47864;52.526;19.672;2024-03-02T06:57:41;151239.50;;;8.92;100.00
61908;BME280;47864;52.526;19.672;2024-03-02T06:59:42;151218.03;;;8.84;100.00
61908;BME280;47864;52.526;19.672;2024-03-02T07:01:44;151218.03;;;8.84;100.00
61908;BME280;47864;52.526;19.672;2024-03-02T07:03:46;151247.09;;;8.95;100.00
61908;BME280;47864;52.526;19.672;2024-03-02T07:05:47;151286.22;;;9.11;100.00
61908;BME280;47864;52.526;19.672;2024-03-02T07:07:49;151279.91;;;9.08;100.00
61908;BME280;47864;52.526;19.672;2024-03-02T07:09:50;151185.25;;;8.70;100.00
61908;BME280;47864;52.526;19.672;2024-03-02T07:11:52;151206.69;;;8.79;100.00
61908;BME280;47864;52.526;19.672;2024-03-02T07:13:54;151268.56;;;9.04;100.00
61908;BME280;47864;52.526;19.672;2024-03-02T07:15:55;151260.97;;;9.01;100.00
61908;BME280;47864;52.526;19.672;2024-03-02T07:17:57;151233.19;;;8.90;100.00
61908;BME280;47864;52.526;19.672;2024-03-02T07:19:58;151220.56;;;8.85;100.00
61908;BME280;47864;52.526;19.672;2024-03-02T07:22:00;151181.44;;;8.69;100.00
61908;BME280;47864;52.526;19.672;2024-03-02T07:24:02;151242.03;;;8.93;100.00
61908;BME280;47864;52.526;19.672;2024-03-02T07:26:04;151305.16;;;9.19;100.00
61908;BME280;47864;52.526;19.672;2024-03-02T07:28:08;151345.56;;;9.35;100.00
61908;BME280;47864;52.526;19.672;2024-03-02T07:30:13;151359.44;;;9.40;100.00
61908;BME280;47864;52.526;19.672;2024-03-02T07:32:15;151373.38;;;9.46;100.00
61908;BME280;47864;52.526;19.672;2024-03-02T07:34:17;151297.56;;;9.15;100.00
61908;BME280;47864;52.526;19.672;2024-03-02T07:36:18;151319.03;;;9.24;100.00
61908;BME280;47864;52.526;19.672;2024-03-02T07:38:20;151326.63;;;9.27;100.00
61908;BME280;47864;52.526;19.672;2024-03-02T07:40:22;151271.09;;;9.05;100.00
61908;BME280;47864;52.526;19.672;2024-03-02T07:42:23;151253.38;;;8.98;100.00
61908;BME280;47864;52.526;19.672;2024-03-02T07:44:25;151302.63;;;9.18;100.00
61908;BME280;47864;52.526;19.672;2024-03-02T07:46:26;151311.50;;;9.21;100.00
61908;BME280;47864;52.526;19.672;2024-03-02T07:48:28;151326.63;;;9.27;100.00
61908;BME280;47864;52.526;19.672;2024-03-02T07:50:30;151189.03;;;8.72;100.00
61908;BME280;47864;52.526;19.672;2024-03-02T07:52:32;151288.75;;;9.12;100.00
61908;BME280;47864;52.526;19.672;2024-03-02T07:54:33;151175.13;;;8.66;100.00
61908;BME280;47864;52.526;19.672;2024-03-02T07:56:35;151224.38;;;8.86;100.00
61908;BME280;47864;52.526;19.672;2024-03-02T07:58:37;151273.56;;;9.06;100.00
61908;BME280;47864;52.526;19.672;2024-03-02T08:00:39;151149.91;;;8.56;100.00
61908;BME280;47864;52.526;19.672;2024-03-02T08:02:41;151201.63;;;8.77;100.00
61908;BME280;47864;52.526;19.672;2024-03-02T08:04:43;151100.69;;;8.36;100.00
61908;BME280;47864;52.526;19.672;2024-03-02T08:06:45;151267.28;;;9.03;100.00
61908;BME280;47864;52.526;19.672;2024-03-02T08:08:47;151284.97;;;9.10;100.00
61908;BME280;47864;52.526;19.672;2024-03-02T08:10:48;151247.09;;;8.95;100.00
61908;BME280;47864;52.526;19.672;2024-03-02T08:12:50;151337.97;;;9.32;100.00
61908;BME280;47864;52.526;19.672;2024-03-02T08:14:52;151396.13;;;9.55;100.00
61908;BME280;47864;52.526;19.672;2024-03-02T08:16:53;151268.56;;;9.04;100.00
61908;BME280;47864;52.526;19.672;2024-03-02T08:18:55;151223.09;;;8.86;100.00
61908;BME280;47864;52.526;19.672;2024-03-02T08:20:56;151383.47;;;9.50;100.00
61908;BME280;47864;52.526;19.672;2024-03-02T08:22:58;151301.38;;;9.17;100.00
61908;BME280;47864;52.526;19.672;2024-03-02T08:25:00;151432.72;;;9.70;100.00
61908;BME280;47864;52.526;19.672;2024-03-02T08:27:01;151297.56;;;9.15;100.00
61908;BME280;47864;52.526;19.672;2024-03-02T08:29:03;151254.66;;;8.98;100.00
61908;BME280;47864;52.526;19.672;2024-03-02T08:31:05;151306.44;;;9.19;100.00
61908;BME280;47864;52.526;19.672;2024-03-02T08:33:06;151446.63;;;9.75;100.00
61908;BME280;47864;52.526;19.672;2024-03-02T08:35:08;151389.78;;;9.52;100.00
61908;BME280;47864;52.526;19.672;2024-03-02T08:37:09;151354.44;;;9.38;100.00
61908;BME280;47864;52.526;19.672;2024-03-02T08:39:11;151384.72;;;9.50;100.00
61908;BME280;47864;52.526;19.672;2024-03-02T08:41:13;151504.72;;;9.99;100.00
61908;BME280;47864;52.526;19.672;2024-03-02T08:43:15;151377.13;;;9.47;100.00
61908;BME280;47864;52.526;19.672;2024-03-02T08:45:16;151354.44;;;9.38;100.00
61908;BME280;47864;52.526;19.672;2024-03-02T08:47:18;151422.59;;;9.66;100.00
61908;BME280;47864;52.526;19.672;2024-03-02T08:49:19;151417.53;;;9.64;100.00
61908;BME280;47864;52.526;19.672;2024-03-02T08:51:21;151422.59;;;9.66;100.00
61908;BME280;47864;52.526;19.672;2024-03-02T08:53:22;151435.25;;;9.71;100.00
61908;BME280;47864;52.526;19.672;2024-03-02T08:55:24;151441.53;;;9.73;100.00
61908;BME280;47864;52.526;19.672;2024-03-02T08:57:25;151336.72;;;9.31;100.00
61908;BME280;47864;52.526;19.672;2024-03-02T08:59:27;151412.53;;;9.62;100.00
61908;BME280;47864;52.526;19.672;2024-03-02T09:01:29;151499.66;;;9.97;100.00
61908;BME280;47864;52.526;19.672;2024-03-02T09:03:30;151455.47;;;9.79;100.00
61908;BME280;47864;52.526;19.672;2024-03-02T09:05:32;151428.94;;;9.68;100.00
61908;BME280;47864;52.526;19.672;2024-03-02T09:07:33;151550.22;;;10.17;100.00
61908;BME280;47864;52.526;19.672;2024-03-02T09:09:35;151483.25;;;9.90;100.00
61908;BME280;47864;52.526;19.672;2024-03-02T09:11:37;151418.81;;;9.64;100.00
61908;BME280;47864;52.526;19.672;2024-03-02T09:13:38;151561.63;;;10.21;100.00
61908;BME280;47864;52.526;19.672;2024-03-02T09:15:40;151512.31;;;10.02;100.00
61908;BME280;47864;52.526;19.672;2024-03-02T09:17:42;151535.06;;;10.11;100.00
61908;BME280;47864;52.526;19.672;2024-03-02T09:19:43;151633.69;;;10.50;100.00
61908;BME280;47864;52.526;19.672;2024-03-02T09:21:45;151567.94;;;10.24;100.00
61908;BME280;47864;52.526;19.672;2024-03-02T09:23:46;151556.59;;;10.19;100.00
61908;BME280;47864;52.526;19.672;2024-03-02T09:25:48;151646.31;;;10.55;100.00
61908;BME280;47864;52.526;19.672;2024-03-02T09:27:49;151632.41;;;10.50;100.00
61908;BME280;47864;52.526;19.672;2024-03-02T09:29:51;151575.56;;;10.27;100.00
61908;BME280;47864;52.526;19.672;2024-03-02T09:31:52;151651.38;;;10.57;100.00
61908;BME280;47864;52.526;19.672;2024-03-02T09:33:54;151557.88;;;10.20;100.00
61908;BME280;47864;52.526;19.672;2024-03-02T09:35:55;151570.47;;;10.25;100.00
61908;BME280;47864;52.526;19.672;2024-03-02T09:37:57;151547.69;;;10.16;100.00
61908;BME280;47864;52.526;19.672;2024-03-02T09:39:58;151526.19;;;10.07;100.00
61908;BME280;47864;52.526;19.672;2024-03-02T09:42:00;151666.53;;;10.63;100.00
61908;BME280;47864;52.526;19.672;2024-03-02T09:44:02;151698.16;;;10.76;100.00
61908;BME280;47864;52.526;19.672;2024-03-02T09:46:04;151597.03;;;10.36;100.00
61908;BME280;47864;52.526;19.672;2024-03-02T09:48:06;151545.16;;;10.15;100.00
61908;BME280;47864;52.526;19.672;2024-03-02T09:50:08;151599.56;;;10.37;100.00
61908;BME280;47864;52.526;19.672;2024-03-02T09:52:10;151604.59;;;10.39;100.00
61908;BME280;47864;52.526;19.672;2024-03-02T09:54:12;151603.31;;;10.38;100.00
61908;BME280;47864;52.526;19.672;2024-03-02T09:56:23;151640.00;;;10.53;100.00
61908;BME280;47864;52.526;19.672;2024-03-02T09:58:24;151610.91;;;10.41;100.00
61908;BME280;47864;52.526;19.672;2024-03-02T10:00:26;151614.72;;;10.43;100.00
61908;BME280;47864;52.526;19.672;2024-03-02T10:02:28;151694.34;;;10.75;100.00
61908;BME280;47864;52.526;19.672;2024-03-02T10:04:30;151695.63;;;10.75;100.00
61908;BME280;47864;52.526;19.672;2024-03-02T10:06:31;151676.66;;;10.67;100.00
61908;BME280;47864;52.526;19.672;2024-03-02T10:08:45;151714.59;;;10.83;100.00
61908;BME280;47864;52.526;19.672;2024-03-02T10:10:46;151801.84;;;11.18;100.00
61908;BME280;47864;52.526;19.672;2024-03-02T10:12:49;151768.94;;;11.04;100.00
61908;BME280;47864;52.526;19.672;2024-03-02T10:15:04;151652.63;;;10.58;100.00
61908;BME280;47864;52.526;19.672;2024-03-02T10:17:08;151767.66;;;11.04;100.00
61908;BME280;47864;52.526;19.672;2024-03-02T10:19:21;151789.16;;;11.13;100.00
61908;BME280;47864;52.526;19.672;2024-03-02T10:21:22;151796.75;;;11.16;100.00
61908;BME280;47864;52.526;19.672;2024-03-02T10:23:24;151736.06;;;10.91;100.00
61908;BME280;47864;52.526;19.672;2024-03-02T10:25:32;151761.38;;;11.01;100.00
61908;BME280;47864;52.526;19.672;2024-03-02T10:27:37;151693.09;;;10.74;100.00
61908;BME280;47864;52.526;19.672;2024-03-02T10:29:41;151853.66;;;11.38;100.00